Almont, ND

7:20 AM MDT on May 06, 2015 (GMT -0600)
Glen Ullin Rgnl, Glen Ullin, | | Change Station
CLOSE
Current Station
Airport
Location: Glen Ullin Rgnl, Glen Ullin,,
Elevation: 2087 ft
Nearby Weather Stations

Elev 2087 ft 46.81 °N, 101.86 °W | Updated 5 minutes ago

Mostly Cloudy
Mostly Cloudy
59 °F
Feels Like 59 °F
N
13
Wind Variable Wind from SE

Today
High -- | Low -- °F
--% Chance of Precip.
Yesterday
High -- | Low -- °F
Precip. -- in
5:24 AM 8:02 PM
Waning Gibbous, 94% visible
Pressure 29.76 in
Visibility 4.0 miles
Clouds Overcast 900 ft
Dew Point 55 °F
Humidity 88%
Rainfall 0.00 in
Snow Depth Not available.
UV 0 out of 12
Pollen 6.40 out of 12
Air Quality Not available.
Flu Activity Regional
METAR KD57 061315Z AUTO 14011KT 4SM BR OVC009 15/13 A2976 RMK AO2

More Conditions Fewer Conditions

Pressure 29.76 in
Visibility 4.0 miles
Clouds Overcast 900 ft
Dew Point 55 °F
Humidity 88%
Rainfall 0.00 in
Snow Depth Not available.
UV 0 out of 12
Pollen 6.40 out of 12
Air Quality Not available.
Flu Activity Regional
METAR KD57 061315Z AUTO 14011KT 4SM BR OVC009 15/13 A2976 RMK AO2

More Conditions Fewer Conditions

10-Day Weather Forecast

Almanac

Astronomy

May. 06, 2015 Rise Set
Actual Time
Civil Twilight
Nautical Twilight
Astronomical Twilight
Moon
Length of Visible Light
Length of Day
Tomorrow will be .
, % of the Moon is Illuminated

Today's Extremes

State Highs State Lows

Community

WunderPhotos

Upload Photos

1,818,894 photos uploaded!

WunderBlogs® & News

Nearby

Air Quality

  Air Quality AQ Index Pollutant
Not available.

Snow Depth

Station Depth Elevation

Earthquake Activity

City Distance Mag. Time & Date
Minimum magnitude displayed is 2.5.

Coastal Water Temperatures

Place Temperature

Stations

Nearby Weather Stations

Station Location Temp. Windchill Dew Point Humidity Wind Precip. Elev Updated Type